createdAt,value
2019-04-16T00:00:28.382Z,96.70
2019-04-16T00:02:59.034Z,96.90
2019-04-16T00:05:40.533Z,97.00
2019-04-16T00:08:32.246Z,97.20
2019-04-16T00:11:11.384Z,97.40
2019-04-16T00:14:03.392Z,97.60
2019-04-16T00:16:33.650Z,97.70
2019-04-16T00:19:05.602Z,97.80
2019-04-16T00:21:59.023Z,98.00
2019-04-16T00:24:34.049Z,98.10
2019-04-16T00:27:03.782Z,98.20
2019-04-16T00:29:33.806Z,98.20
2019-04-16T00:32:08.293Z,98.30
2019-04-16T00:34:36.081Z,98.30
2019-04-16T00:37:05.681Z,98.50
2019-04-16T00:39:35.115Z,98.60
2019-04-16T00:42:05.291Z,98.70
2019-04-16T00:44:34.701Z,98.60
2019-04-16T00:47:04.139Z,98.90
2019-04-16T00:49:33.549Z,98.50
2019-04-16T00:52:05.665Z,98.40
2019-04-16T00:54:34.243Z,98.60
2019-04-16T00:57:03.899Z,98.70
2019-04-16T00:59:33.462Z,98.90
2019-04-16T01:02:03.001Z,99.10
2019-04-16T01:04:32.523Z,99.10
2019-04-16T01:07:01.949Z,99.30
2019-04-16T01:09:31.381Z,99.40
2019-04-16T01:12:01.179Z,99.60
2019-04-16T01:14:30.628Z,99.60
2019-04-16T01:17:03.876Z,99.60
2019-04-16T01:19:31.364Z,99.60
2019-04-16T01:22:00.808Z,99.70
2019-04-16T01:24:30.282Z,99.80
2019-04-16T01:26:59.898Z,99.90
2019-04-16T01:29:33.642Z,99.90
2019-04-16T01:32:18.427Z,99.80
2019-04-16T01:35:09.841Z,99.90
2019-04-16T01:38:07.571Z,99.90
2019-04-16T01:40:50.109Z,99.90
2019-04-16T01:43:19.484Z,99.90
2019-04-16T01:45:48.923Z,99.90
2019-04-16T01:48:18.349Z,99.90
2019-04-16T01:50:47.812Z,99.90
2019-04-16T01:53:18.380Z,99.90
2019-04-16T01:55:48.887Z,99.90
2019-04-16T01:58:18.281Z,99.90
2019-04-16T02:00:47.719Z,99.90
2019-04-16T02:03:17.808Z,99.90
2019-04-16T02:05:47.911Z,99.90
2019-04-16T02:08:17.480Z,99.90
2019-04-16T02:10:47.074Z,99.90
2019-04-16T02:13:16.474Z,99.90
2019-04-16T02:15:45.971Z,99.90
2019-04-16T02:18:15.420Z,99.90
2019-04-16T02:20:44.884Z,99.90
2019-04-16T02:23:16.722Z,99.90
2019-04-16T02:25:45.602Z,99.90
2019-04-16T02:28:15.030Z,99.90
2019-04-16T02:30:44.579Z,99.90
2019-04-16T02:33:14.058Z,99.90
2019-04-16T02:35:43.514Z,99.90
2019-04-16T02:38:14.205Z,99.90
2019-04-16T02:40:51.454Z,99.90
2019-04-16T02:43:14.942Z,99.90
2019-04-16T02:45:44.375Z,99.90
2019-04-16T02:48:16.619Z,99.90
2019-04-16T02:50:47.874Z,99.90
2019-04-16T02:53:58.499Z,99.90
2019-04-16T02:56:56.712Z,99.90
2019-04-16T02:59:32.445Z,99.90
2019-04-16T03:02:22.684Z,99.90
2019-04-16T03:05:03.949Z,99.90
2019-04-16T03:07:33.498Z,99.90
2019-04-16T03:10:04.840Z,99.90
2019-04-16T03:12:34.606Z,99.90
2019-04-16T03:15:04.366Z,99.90
2019-04-16T03:17:39.515Z,99.90
2019-04-16T03:20:09.682Z,99.90
2019-04-16T03:22:39.236Z,99.90
2019-04-16T03:25:12.358Z,99.90
2019-04-16T03:27:40.511Z,99.90
2019-04-16T03:30:09.925Z,99.90
2019-04-16T03:32:51.978Z,99.90
2019-04-16T03:35:25.548Z,99.90
2019-04-16T03:37:52.752Z,99.90
2019-04-16T03:40:25.485Z,99.90
2019-04-16T03:42:53.284Z,99.90
2019-04-16T03:45:22.844Z,99.90
2019-04-16T03:47:52.481Z,99.90
2019-04-16T03:50:21.929Z,99.90
2019-04-16T03:52:51.765Z,99.90
2019-04-16T03:55:25.040Z,99.90
2019-04-16T03:57:52.556Z,99.90
2019-04-16T04:00:22.004Z,99.90
2019-04-16T04:02:54.261Z,99.90
2019-04-16T04:05:22.712Z,99.90
2019-04-16T04:07:55.128Z,99.90
2019-04-16T04:10:30.725Z,99.90
2019-04-16T04:12:54.638Z,99.90
2019-04-16T04:15:26.288Z,99.90
2019-04-16T04:17:55.875Z,99.90
2019-04-16T04:20:25.484Z,99.90
2019-04-16T04:22:57.204Z,99.90
2019-04-16T04:25:26.215Z,99.90
2019-04-16T04:27:55.665Z,99.90
2019-04-16T04:30:28.902Z,99.90
2019-04-16T04:32:58.020Z,99.90
2019-04-16T04:35:27.418Z,99.90
2019-04-16T04:37:56.852Z,99.90
2019-04-16T04:40:26.267Z,99.90
2019-04-16T04:42:57.765Z,99.90
2019-04-16T04:45:26.910Z,99.90
2019-04-16T04:47:56.671Z,99.90
2019-04-16T04:50:26.232Z,99.90
2019-04-16T04:52:55.812Z,99.90
2019-04-16T04:55:26.823Z,99.90
2019-04-16T04:57:56.384Z,99.90
2019-04-16T05:00:25.836Z,99.90
2019-04-16T05:02:55.272Z,99.90
2019-04-16T05:05:48.013Z,99.90
2019-04-16T05:08:17.438Z,99.90
2019-04-16T05:10:58.426Z,99.90
2019-04-16T05:13:18.304Z,99.90
2019-04-16T05:15:47.874Z,99.90
2019-04-16T05:18:17.337Z,99.90
2019-04-16T05:20:47.694Z,99.90
2019-04-16T05:23:17.962Z,99.90
2019-04-16T05:25:47.588Z,99.90
2019-04-16T05:28:17.028Z,99.90
2019-04-16T05:30:51.739Z,99.90
2019-04-16T05:33:18.248Z,99.90
2019-04-16T05:35:47.914Z,99.90
2019-04-16T05:38:17.341Z,99.90
2019-04-16T05:40:46.800Z,99.90
2019-04-16T05:43:16.235Z,99.90
2019-04-16T05:45:46.155Z,99.90
2019-04-16T05:48:18.530Z,99.90
2019-04-16T05:50:48.081Z,99.90
2019-04-16T05:53:17.564Z,99.90
2019-04-16T05:55:58.555Z,99.90
2019-04-16T05:58:30.754Z,99.90
2019-04-16T06:01:14.159Z,99.90
2019-04-16T06:03:43.918Z,99.90
2019-04-16T06:06:13.540Z,99.90
2019-04-16T06:08:43.056Z,99.90
2019-04-16T06:11:26.636Z,99.90
2019-04-16T06:13:58.827Z,99.90
2019-04-16T06:17:05.642Z,99.90
2019-04-16T06:19:53.912Z,99.90
2019-04-16T06:22:54.467Z,99.90
2019-04-16T06:25:41.448Z,99.90
2019-04-16T06:28:42.651Z,99.90
2019-04-16T06:31:39.402Z,99.90
2019-04-16T06:34:26.102Z,99.90
2019-04-16T06:37:00.509Z,99.90
2019-04-16T06:40:00.577Z,99.90
2019-04-16T06:42:54.212Z,99.90
2019-04-16T06:45:54.264Z,99.90
2019-04-16T06:48:29.101Z,99.90
2019-04-16T06:51:17.532Z,99.90
2019-04-16T06:54:04.761Z,99.90
2019-04-16T06:56:51.992Z,99.90
2019-04-16T06:59:49.409Z,99.90
2019-04-16T07:02:37.439Z,99.90
2019-04-16T07:05:24.788Z,99.90
2019-04-16T07:08:19.841Z,99.90
2019-04-16T07:10:57.644Z,99.90
2019-04-16T07:13:27.230Z,99.90
2019-04-16T07:15:57.673Z,99.90
2019-04-16T07:18:27.405Z,99.90
2019-04-16T07:20:56.874Z,99.90
2019-04-16T07:23:26.437Z,99.90
2019-04-16T07:25:56.207Z,99.90
2019-04-16T07:28:42.642Z,99.90
2019-04-16T07:31:32.717Z,99.90
2019-04-16T07:34:13.934Z,99.90
2019-04-16T07:37:00.425Z,99.90
2019-04-16T07:39:51.336Z,99.90
2019-04-16T07:42:34.613Z,99.90
2019-04-16T07:45:28.934Z,99.90
2019-04-16T07:48:17.330Z,99.90
2019-04-16T07:51:04.810Z,99.90
2019-04-16T07:54:06.112Z,99.90
2019-04-16T07:56:36.471Z,99.90
2019-04-16T07:59:05.916Z,99.90
2019-04-16T08:01:35.467Z,99.90
2019-04-16T08:04:04.922Z,99.90
2019-04-16T08:06:34.497Z,99.90
2019-04-16T08:09:05.610Z,99.90
2019-04-16T08:11:35.156Z,99.90
2019-04-16T08:14:08.640Z,99.90
2019-04-16T08:16:46.669Z,99.90
2019-04-16T08:19:06.812Z,99.90
2019-04-16T08:21:36.332Z,99.90
2019-04-16T08:24:07.943Z,99.90
2019-04-16T08:26:37.511Z,99.90
2019-04-16T08:29:07.259Z,99.90
2019-04-16T08:31:40.774Z,99.90
2019-04-16T08:34:11.307Z,99.90
2019-04-16T08:36:40.818Z,99.90
2019-04-16T08:39:12.014Z,99.90
2019-04-16T08:41:41.441Z,99.90
2019-04-16T08:44:10.970Z,99.90
2019-04-16T08:46:41.199Z,99.90
2019-04-16T08:49:10.747Z,99.90
2019-04-16T08:51:40.214Z,99.90
2019-04-16T08:54:09.712Z,99.90
2019-04-16T08:56:39.479Z,99.90
2019-04-16T08:59:10.047Z,99.90
2019-04-16T09:01:40.026Z,99.90
2019-04-16T09:04:09.467Z,99.90
2019-04-16T09:06:38.927Z,99.90
2019-04-16T09:09:26.045Z,99.90
2019-04-16T09:11:58.547Z,99.90
2019-04-16T09:14:30.128Z,99.90
2019-04-16T09:17:15.021Z,99.90
2019-04-16T09:19:48.933Z,99.90
2019-04-16T09:22:18.480Z,99.90
2019-04-16T09:24:58.605Z,99.90
2019-04-16T09:27:39.343Z,99.90
2019-04-16T09:30:26.382Z,99.90
2019-04-16T09:33:03.891Z,99.90
2019-04-16T09:35:49.422Z,99.90
2019-04-16T09:38:26.571Z,99.90
2019-04-16T09:41:21.018Z,99.90
2019-04-16T09:43:53.789Z,99.90
2019-04-16T09:46:48.761Z,99.90
2019-04-16T09:48:55.912Z,99.90
2019-04-16T09:51:26.287Z,99.90
2019-04-16T09:53:55.891Z,99.90
2019-04-16T09:56:32.355Z,99.90
2019-04-16T09:59:10.759Z,99.90
2019-04-16T10:01:44.908Z,99.90
2019-04-16T10:04:16.661Z,99.90
2019-04-16T10:06:46.169Z,99.90
2019-04-16T10:09:19.746Z,99.90
2019-04-16T10:11:46.888Z,99.90
2019-04-16T10:14:16.500Z,99.90
2019-04-16T10:16:45.966Z,99.90
2019-04-16T10:19:15.426Z,99.90
2019-04-16T10:21:44.923Z,99.90
2019-04-16T10:24:36.207Z,99.90
2019-04-16T10:27:06.106Z,99.90
2019-04-16T10:29:35.569Z,99.90
2019-04-16T10:32:05.310Z,99.90
2019-04-16T10:34:36.267Z,99.90
2019-04-16T10:37:06.261Z,99.90
2019-04-16T10:39:53.421Z,99.70
2019-04-16T10:42:34.060Z,99.80
2019-04-16T10:45:25.285Z,99.90
2019-04-16T10:48:12.385Z,99.80
2019-04-16T10:51:00.788Z,99.90
2019-04-16T10:53:41.271Z,99.70
2019-04-16T10:56:27.903Z,99.80
2019-04-16T10:59:28.394Z,99.50
2019-04-16T11:02:16.705Z,99.70
2019-04-16T11:05:07.819Z,99.60
2019-04-16T11:07:37.317Z,99.30
2019-04-16T11:10:06.741Z,99.00
2019-04-16T11:12:36.193Z,99.00
2019-04-16T11:15:06.010Z,98.70
2019-04-16T11:17:35.455Z,98.50
2019-04-16T11:20:06.116Z,98.80
2019-04-16T11:22:35.703Z,99.10
2019-04-16T11:25:05.340Z,98.90
2019-04-16T11:27:34.802Z,98.90
2019-04-16T11:30:05.902Z,99.30
2019-04-16T11:32:39.085Z,99.00
2019-04-16T11:35:06.448Z,99.10
2019-04-16T11:37:36.333Z,99.00
2019-04-16T11:40:06.162Z,99.00
2019-04-16T11:42:35.652Z,98.90
2019-04-16T11:45:05.771Z,98.70
2019-04-16T11:47:36.234Z,98.50
2019-04-16T11:50:06.182Z,98.50
2019-04-16T11:52:35.625Z,98.70
2019-04-16T11:55:05.315Z,98.70
2019-04-16T11:57:34.762Z,98.50
2019-04-16T12:00:08.232Z,98.40
2019-04-16T12:02:49.712Z,98.50
2019-04-16T12:05:40.898Z,98.10
2019-04-16T12:08:38.257Z,98.30
2019-04-16T12:11:30.637Z,98.40
2019-04-16T12:14:09.582Z,98.50
2019-04-16T12:16:56.459Z,98.30
2019-04-16T12:19:44.978Z,98.50
2019-04-16T12:22:24.974Z,98.40
2019-04-16T12:25:12.229Z,98.50
2019-04-16T12:27:54.600Z,98.70
2019-04-16T12:30:48.717Z,98.50
2019-04-16T12:33:29.761Z,98.90
2019-04-16T12:36:14.630Z,98.80
2019-04-16T12:39:03.527Z,98.70
2019-04-16T12:41:50.927Z,98.70
2019-04-16T12:44:51.384Z,98.70
2019-04-16T12:47:42.737Z,98.50
2019-04-16T12:50:29.066Z,98.70
2019-04-16T12:53:06.085Z,97.90
2019-04-16T12:55:53.090Z,98.10
2019-04-16T12:58:59.600Z,98.10
2019-04-16T13:01:43.036Z,98.10
2019-04-16T13:04:19.089Z,98.10
2019-04-16T13:07:01.254Z,97.70
2019-04-16T13:09:48.454Z,97.90
2019-04-16T13:12:26.621Z,97.50
2019-04-16T13:15:20.110Z,97.80
2019-04-16T13:18:08.182Z,97.30
2019-04-16T13:21:08.535Z,97.40
2019-04-16T13:24:00.089Z,97.10
2019-04-16T13:26:46.093Z,96.90
2019-04-16T13:29:18.145Z,97.10
2019-04-16T13:31:47.645Z,96.80
2019-04-16T13:34:18.625Z,97.30
2019-04-16T13:36:51.484Z,97.10
2019-04-16T13:39:47.415Z,97.00
2019-04-16T13:42:19.915Z,97.00
2019-04-16T13:44:53.253Z,96.30
2019-04-16T13:47:22.835Z,96.40
2019-04-16T13:50:03.685Z,96.30
2019-04-16T13:52:31.482Z,96.10
2019-04-16T13:55:19.932Z,95.90
2019-04-16T13:58:11.312Z,96.10
2019-04-16T14:00:44.865Z,95.60
2019-04-16T14:03:16.568Z,95.40
2019-04-16T14:05:46.223Z,95.60
2019-04-16T14:08:15.728Z,95.80
2019-04-16T14:10:45.197Z,96.00
2019-04-16T14:13:14.766Z,95.70
2019-04-16T14:15:44.918Z,95.30
2019-04-16T14:18:14.989Z,95.60
2019-04-16T14:20:44.523Z,95.30
2019-04-16T14:23:14.071Z,95.20
2019-04-16T14:25:43.604Z,95.60
2019-04-16T14:28:13.051Z,95.60
2019-04-16T14:30:46.336Z,95.10
2019-04-16T14:33:21.710Z,94.80
2019-04-16T14:35:51.210Z,95.00
2019-04-16T14:38:27.119Z,95.00
2019-04-16T14:40:56.631Z,95.30
2019-04-16T14:43:32.489Z,95.40
2019-04-16T14:46:01.992Z,95.00
2019-04-16T14:48:31.420Z,95.20
2019-04-16T14:51:00.927Z,95.20
2019-04-16T14:53:39.807Z,95.50
2019-04-16T14:56:17.516Z,95.20
2019-04-16T14:59:02.565Z,95.60
2019-04-16T15:01:57.031Z,95.70
2019-04-16T15:04:34.486Z,95.50
2019-04-16T15:07:22.886Z,95.50
2019-04-16T15:10:14.281Z,95.40
2019-04-16T15:13:05.709Z,95.70
2019-04-16T15:15:45.942Z,95.70
2019-04-16T15:18:40.329Z,95.70
2019-04-16T15:21:27.314Z,95.50
2019-04-16T15:24:09.638Z,95.60
2019-04-16T15:27:06.884Z,95.60
2019-04-16T15:29:57.808Z,95.70
2019-04-16T15:32:42.245Z,95.50
2019-04-16T15:35:15.093Z,95.80
2019-04-16T15:37:57.868Z,95.70
2019-04-16T15:40:33.324Z,95.40
2019-04-16T15:43:27.819Z,95.50
2019-04-16T15:46:26.014Z,95.20
2019-04-16T15:49:19.481Z,95.20
2019-04-16T15:52:09.920Z,95.10
2019-04-16T15:54:55.340Z,95.60
2019-04-16T15:57:40.218Z,95.20
2019-04-16T16:00:32.019Z,95.30
2019-04-16T16:03:23.420Z,95.50
2019-04-16T16:05:57.352Z,95.50
2019-04-16T16:08:40.636Z,95.40
2019-04-16T16:11:17.397Z,95.30
2019-04-16T16:13:47.070Z,95.30
2019-04-16T16:16:18.113Z,95.60
2019-04-16T16:18:47.741Z,95.60
2019-04-16T16:21:17.200Z,95.80
2019-04-16T16:23:46.649Z,95.90
2019-04-16T16:26:16.366Z,95.80
2019-04-16T16:28:45.864Z,95.80
2019-04-16T16:31:15.376Z,95.70
2019-04-16T16:33:45.011Z,95.80
2019-04-16T16:36:14.484Z,95.90
2019-04-16T16:38:48.275Z,95.90
2019-04-16T16:41:15.200Z,95.70
2019-04-16T16:43:45.145Z,95.60
2019-04-16T16:46:39.529Z,95.60
2019-04-16T16:49:09.129Z,95.60
2019-04-16T16:51:41.122Z,95.40
2019-04-16T16:54:17.038Z,95.30
2019-04-16T16:57:07.407Z,95.00
2019-04-16T16:59:53.316Z,95.00
2019-04-16T17:02:37.281Z,95.10
2019-04-16T17:05:09.468Z,94.70
2019-04-16T17:07:39.018Z,95.10
2019-04-16T17:10:08.450Z,94.80
2019-04-16T17:12:37.978Z,95.00
2019-04-16T17:15:09.070Z,94.80
2019-04-16T17:17:38.884Z,95.10
2019-04-16T17:20:08.341Z,95.10
2019-04-16T17:22:40.789Z,94.90
2019-04-16T17:25:11.973Z,94.60
2019-04-16T17:27:51.104Z,94.20
2019-04-16T17:30:11.458Z,94.10
2019-04-16T17:32:40.956Z,94.30
2019-04-16T17:35:14.373Z,94.30
2019-04-16T17:37:41.619Z,94.40
2019-04-16T17:40:26.343Z,94.40
2019-04-16T17:42:59.540Z,94.60
2019-04-16T17:45:52.363Z,94.90
2019-04-16T17:48:37.114Z,94.90
2019-04-16T17:51:20.205Z,94.90
2019-04-16T17:53:55.894Z,94.90
2019-04-16T17:56:46.256Z,95.30
2019-04-16T17:59:19.805Z,95.10
2019-04-16T18:02:17.235Z,95.30
2019-04-16T18:05:04.378Z,95.30
2019-04-16T18:07:51.395Z,95.50
2019-04-16T18:10:45.832Z,95.50
2019-04-16T18:13:20.468Z,95.70
2019-04-16T18:16:01.166Z,95.60
2019-04-16T18:18:41.251Z,95.60
2019-04-16T18:21:38.812Z,95.50
2019-04-16T18:24:20.814Z,95.50
2019-04-16T18:27:18.336Z,95.60
2019-04-16T18:29:57.067Z,95.80
2019-04-16T18:32:33.886Z,95.90
2019-04-16T18:35:16.419Z,96.00
2019-04-16T18:37:55.083Z,96.00
2019-04-16T18:40:43.446Z,96.20
2019-04-16T18:43:32.144Z,96.00
2019-04-16T18:46:33.176Z,96.30
2019-04-16T18:49:09.415Z,96.40
2019-04-16T18:51:38.837Z,96.60
2019-04-16T18:54:08.326Z,96.70
2019-04-16T18:56:37.762Z,96.70
2019-04-16T18:59:07.233Z,96.80
2019-04-16T19:01:37.404Z,96.90
2019-04-16T19:04:06.857Z,97.00
2019-04-16T19:06:36.323Z,97.00
2019-04-16T19:09:07.384Z,97.10
2019-04-16T19:11:36.776Z,97.20
2019-04-16T19:14:06.295Z,97.30
2019-04-16T19:16:35.767Z,97.40
2019-04-16T19:19:05.225Z,97.40
2019-04-16T19:21:34.714Z,97.30
2019-04-16T19:24:04.180Z,97.40
2019-04-16T19:26:33.634Z,97.40
2019-04-16T19:29:05.527Z,97.50
2019-04-16T19:31:34.276Z,97.50
2019-04-16T19:34:09.307Z,97.70
2019-04-16T19:36:34.986Z,97.70
2019-04-16T19:39:06.735Z,97.80
2019-04-16T19:41:41.024Z,97.80
2019-04-16T19:44:08.551Z,97.90
2019-04-16T19:46:38.259Z,98.00
2019-04-16T19:49:07.934Z,98.00
2019-04-16T19:51:37.950Z,98.10
2019-04-16T19:54:09.073Z,98.20
2019-04-16T19:56:38.500Z,98.10
2019-04-16T19:59:08.162Z,98.20
2019-04-16T20:01:37.886Z,98.30
2019-04-16T20:04:10.742Z,98.40
2019-04-16T20:06:38.668Z,98.40
2019-04-16T20:09:08.215Z,98.30
2019-04-16T20:11:37.664Z,98.20
2019-04-16T20:14:07.171Z,98.30
2019-04-16T20:16:36.718Z,98.30
2019-04-16T20:19:06.360Z,98.40
2019-04-16T20:21:37.925Z,98.70
2019-04-16T20:24:07.181Z,98.70
2019-04-16T20:26:36.687Z,98.70
2019-04-16T20:29:06.373Z,98.80
2019-04-16T20:31:35.833Z,98.90
2019-04-16T20:34:05.306Z,99.10
2019-04-16T20:36:34.959Z,99.30
2019-04-16T20:39:07.037Z,99.50
2019-04-16T20:41:36.562Z,99.60
2019-04-16T20:44:08.876Z,99.80
2019-04-16T20:46:37.341Z,99.90
2019-04-16T20:49:10.420Z,99.90
2019-04-16T20:51:39.188Z,99.90
2019-04-16T20:54:12.798Z,99.90
2019-04-16T20:56:40.628Z,99.90
2019-04-16T20:59:10.350Z,99.90
2019-04-16T21:01:40.321Z,99.90
2019-04-16T21:04:10.019Z,99.90
2019-04-16T21:06:41.884Z,99.90
2019-04-16T21:09:10.607Z,99.90
2019-04-16T21:11:41.049Z,99.90
2019-04-16T21:14:11.365Z,99.90
2019-04-16T21:16:40.959Z,99.90
2019-04-16T21:19:22.093Z,99.90
2019-04-16T21:21:41.598Z,99.90
2019-04-16T21:24:13.544Z,99.90
2019-04-16T21:26:42.226Z,99.90
2019-04-16T21:29:25.528Z,99.90
2019-04-16T21:31:58.728Z,99.90
2019-04-16T21:34:34.496Z,99.90
2019-04-16T21:37:41.031Z,99.90
2019-04-16T21:40:10.624Z,99.90
2019-04-16T21:42:40.112Z,99.90
2019-04-16T21:45:09.583Z,99.90
2019-04-16T21:47:39.214Z,99.90
2019-04-16T21:50:17.590Z,99.90
2019-04-16T21:52:47.473Z,99.90
2019-04-16T21:55:17.425Z,99.90
2019-04-16T21:57:47.127Z,99.90
2019-04-16T22:00:34.730Z,99.90
2019-04-16T22:03:09.444Z,99.90
2019-04-16T22:05:37.317Z,99.90
2019-04-16T22:08:06.905Z,99.90
2019-04-16T22:10:36.418Z,99.90
2019-04-16T22:13:06.131Z,99.90
2019-04-16T22:15:35.716Z,99.90
2019-04-16T22:18:08.745Z,99.90
2019-04-16T22:20:36.689Z,99.90
2019-04-16T22:23:06.269Z,99.90
2019-04-16T22:25:35.668Z,99.90
2019-04-16T22:28:05.303Z,99.90
2019-04-16T22:30:34.745Z,99.90
2019-04-16T22:33:06.397Z,99.90
2019-04-16T22:35:35.870Z,99.90
2019-04-16T22:38:05.314Z,99.90
2019-04-16T22:41:00.196Z,99.90
2019-04-16T22:43:47.282Z,99.90
2019-04-16T22:46:23.497Z,99.90
2019-04-16T22:48:56.998Z,99.90
2019-04-16T22:51:26.650Z,99.90
2019-04-16T22:53:56.237Z,99.90
2019-04-16T22:56:35.998Z,99.90
2019-04-16T22:59:06.562Z,99.90
2019-04-16T23:01:37.812Z,99.90
2019-04-16T23:04:07.336Z,99.90
2019-04-16T23:06:38.692Z,99.90
2019-04-16T23:09:09.380Z,99.90
2019-04-16T23:11:39.234Z,99.90
2019-04-16T23:14:08.742Z,99.90
2019-04-16T23:16:41.876Z,99.90
2019-04-16T23:19:09.622Z,99.90
2019-04-16T23:21:42.308Z,99.90
2019-04-16T23:24:10.114Z,99.90
2019-04-16T23:26:39.507Z,99.90
2019-04-16T23:29:09.036Z,99.90
2019-04-16T23:31:40.072Z,99.90
2019-04-16T23:34:09.744Z,99.90
2019-04-16T23:36:39.247Z,99.90
2019-04-16T23:39:08.741Z,99.90
2019-04-16T23:41:38.183Z,99.90
2019-04-16T23:44:25.766Z,99.90
2019-04-16T23:47:18.086Z,99.90
2019-04-16T23:50:10.084Z,99.90
2019-04-16T23:52:44.501Z,99.90
2019-04-16T23:55:51.316Z,99.90
2019-04-16T23:58:37.567Z,99.90
